createdAt,value
2018-03-29T00:01:00.634Z,99724.29
2018-03-29T00:03:28.214Z,99724.70
2018-03-29T00:05:55.835Z,99728.23
2018-03-29T00:08:23.406Z,99725.52
2018-03-29T00:10:51.029Z,99724.59
2018-03-29T00:13:18.608Z,99723.40
2018-03-29T00:15:46.239Z,99728.23
2018-03-29T00:18:13.829Z,99727.37
2018-03-29T00:20:41.457Z,99732.97
2018-03-29T00:23:09.053Z,99741.34
2018-03-29T00:25:36.678Z,99741.16
2018-03-29T00:28:04.275Z,99736.64
2018-03-29T00:30:31.993Z,99729.19
2018-03-29T00:32:59.583Z,99726.53
2018-03-29T00:35:27.211Z,99738.03
2018-03-29T00:37:54.804Z,99744.08
2018-03-29T00:40:22.422Z,99751.91
2018-03-29T00:42:50.020Z,99738.23
2018-03-29T00:45:17.607Z,99753.45
2018-03-29T00:47:45.306Z,99751.21
2018-03-29T00:50:12.895Z,99760.05
2018-03-29T00:52:40.624Z,99759.11
2018-03-29T00:55:08.228Z,99757.09
2018-03-29T00:57:35.874Z,99757.87
2018-03-29T01:00:03.486Z,99760.41
2018-03-29T01:02:31.101Z,99760.78
2018-03-29T01:04:58.714Z,99766.76
2018-03-29T01:07:26.367Z,99775.22
2018-03-29T01:09:53.974Z,99775.58
2018-03-29T01:12:21.699Z,99770.17
2018-03-29T01:14:49.297Z,99771.25
2018-03-29T01:17:16.931Z,99766.94
2018-03-29T01:19:44.533Z,99773.73
2018-03-29T01:22:12.175Z,99773.83
2018-03-29T01:24:39.861Z,99770.45
2018-03-29T01:27:07.478Z,99773.73
2018-03-29T01:29:35.077Z,99777.15
2018-03-29T01:32:02.718Z,99779.14
2018-03-29T01:34:30.323Z,99783.41
2018-03-29T01:36:58.018Z,99783.69
2018-03-29T01:39:25.634Z,99787.83
2018-03-29T01:41:53.274Z,99789.16
2018-03-29T01:44:20.866Z,99796.02
2018-03-29T01:46:48.458Z,99789.50
2018-03-29T01:49:16.076Z,99792.19
2018-03-29T01:51:43.686Z,99789.81
2018-03-29T01:54:11.323Z,99791.45
2018-03-29T01:56:38.936Z,99800.19
2018-03-29T01:59:06.562Z,99806.98
2018-03-29T02:01:34.158Z,99810.70
2018-03-29T02:04:01.878Z,99809.22
2018-03-29T02:06:29.462Z,99817.53
2018-03-29T02:08:57.098Z,99816.83
2018-03-29T02:11:24.687Z,99817.44
2018-03-29T02:13:52.314Z,99816.23
2018-03-29T02:16:19.926Z,99815.70
2018-03-29T02:18:47.584Z,99819.30
2018-03-29T02:21:15.158Z,99823.66
2018-03-29T02:23:42.826Z,99829.54
2018-03-29T02:26:10.416Z,99830.77
2018-03-29T02:28:38.012Z,99828.66
2018-03-29T02:31:05.665Z,99830.48
2018-03-29T02:33:33.253Z,99835.07
2018-03-29T02:36:00.878Z,99833.62
2018-03-29T02:38:28.486Z,99835.61
2018-03-29T02:40:56.113Z,99830.84
2018-03-29T02:43:23.721Z,99830.87
2018-03-29T02:45:51.415Z,99832.45
2018-03-29T02:48:19.018Z,99837.53
2018-03-29T02:50:46.663Z,99842.19
2018-03-29T02:53:14.255Z,99844.84
2018-03-29T02:55:41.918Z,99849.48
2018-03-29T02:58:09.523Z,99843.77
2018-03-29T03:00:37.150Z,99848.56
2018-03-29T03:03:04.756Z,99845.03
2018-03-29T03:05:32.398Z,99852.99
2018-03-29T03:08:00.022Z,99854.03
2018-03-29T03:10:27.641Z,99858.75
2018-03-29T03:12:55.241Z,99856.44
2018-03-29T03:15:22.871Z,99859.09
2018-03-29T03:17:50.470Z,99866.42
2018-03-29T03:20:18.136Z,99863.11
2018-03-29T03:22:45.759Z,99868.10
2018-03-29T03:25:13.348Z,99854.28
2018-03-29T03:27:41.082Z,99860.27
2018-03-29T03:30:08.697Z,99854.95
2018-03-29T03:32:36.309Z,99848.22
2018-03-29T03:35:03.990Z,99855.30
2018-03-29T03:37:31.619Z,99852.93
2018-03-29T03:39:59.235Z,99859.98
2018-03-29T03:42:26.874Z,99846.35
2018-03-29T03:44:54.515Z,99853.19
2018-03-29T03:47:22.151Z,99851.19
2018-03-29T03:49:49.730Z,99848.47
2018-03-29T03:52:17.497Z,99856.09
2018-03-29T03:54:45.091Z,99858.84
2018-03-29T03:57:12.739Z,99857.13
2018-03-29T03:59:40.358Z,99859.16
2018-03-29T04:02:07.974Z,99864.72
2018-03-29T04:04:35.581Z,99857.58
2018-03-29T04:07:03.199Z,99859.62
2018-03-29T04:09:30.811Z,99854.44
2018-03-29T04:11:58.423Z,99859.91
2018-03-29T04:14:26.054Z,99857.25
2018-03-29T04:16:53.634Z,99862.82
2018-03-29T04:19:21.342Z,99863.86
2018-03-29T04:21:48.953Z,99858.65
2018-03-29T04:24:16.666Z,99861.84
2018-03-29T04:26:44.251Z,99868.35
2018-03-29T04:29:11.883Z,99862.95
2018-03-29T04:31:39.512Z,99859.41
2018-03-29T04:34:07.134Z,99866.05
2018-03-29T04:36:34.744Z,99873.34
2018-03-29T04:39:02.369Z,99872.43
2018-03-29T04:41:29.950Z,99869.96
2018-03-29T04:43:57.598Z,99874.70
2018-03-29T04:46:25.199Z,99863.01
2018-03-29T04:48:52.902Z,99860.53
2018-03-29T04:51:20.493Z,99862.22
2018-03-29T04:53:48.131Z,99854.63
2018-03-29T04:56:15.749Z,99855.23
2018-03-29T04:58:43.534Z,99860.38
2018-03-29T05:01:11.183Z,99859.44
2018-03-29T05:03:38.831Z,99864.59
2018-03-29T05:06:06.483Z,99863.52
2018-03-29T05:08:34.078Z,99873.06
2018-03-29T05:11:01.868Z,99873.38
2018-03-29T05:13:29.466Z,99875.06
2018-03-29T05:15:57.114Z,99873.60
2018-03-29T05:18:24.704Z,99863.74
2018-03-29T05:20:52.673Z,99870.95
2018-03-29T05:23:20.270Z,99874.05
2018-03-29T05:25:47.910Z,99868.89
2018-03-29T05:28:21.380Z,99871.67
2018-03-29T05:30:49.065Z,99870.82
2018-03-29T05:33:16.653Z,99876.98
2018-03-29T05:35:44.300Z,99882.55
2018-03-29T05:38:11.890Z,99879.48
2018-03-29T05:40:39.524Z,99881.50
2018-03-29T05:43:07.140Z,99878.47
2018-03-29T05:45:34.745Z,99882.55
2018-03-29T05:48:02.342Z,99876.32
2018-03-29T05:50:30.056Z,99879.67
2018-03-29T05:52:57.647Z,99877.52
2018-03-29T05:55:25.280Z,99874.61
2018-03-29T05:57:52.883Z,99875.21
2018-03-29T06:00:20.510Z,99874.52
2018-03-29T06:02:48.221Z,99871.86
2018-03-29T06:05:15.848Z,99873.88
2018-03-29T06:07:43.455Z,99873.47
2018-03-29T06:10:11.055Z,99873.50
2018-03-29T06:12:38.689Z,99881.50
2018-03-29T06:15:11.977Z,99887.16
2018-03-29T06:17:42.194Z,99887.32
2018-03-29T06:20:09.865Z,99885.05
2018-03-29T06:22:37.471Z,99881.66
2018-03-29T06:25:05.038Z,99885.39
2018-03-29T06:27:32.671Z,99886.75
2018-03-29T06:30:00.282Z,99885.98
2018-03-29T06:32:28.010Z,99893.86
2018-03-29T06:34:55.619Z,99892.12
2018-03-29T06:37:23.255Z,99895.50
2018-03-29T06:39:50.853Z,99908.88
2018-03-29T06:42:18.648Z,99911.70
2018-03-29T06:44:46.268Z,99909.67
2018-03-29T06:47:13.883Z,99912.73
2018-03-29T06:49:41.519Z,99920.97
2018-03-29T06:52:09.171Z,99916.72
2018-03-29T06:54:36.850Z,99913.72
2018-03-29T06:57:04.496Z,99913.18
2018-03-29T06:59:32.090Z,99912.48
2018-03-29T07:01:59.740Z,99914.38
2018-03-29T07:04:27.394Z,99918.62
2018-03-29T07:06:55.031Z,99917.30
2018-03-29T07:09:22.624Z,99911.95
2018-03-29T07:11:50.306Z,99915.80
2018-03-29T07:14:17.928Z,99914.26
2018-03-29T07:16:45.562Z,99917.20
2018-03-29T07:19:13.173Z,99920.30
2018-03-29T07:21:40.839Z,99913.20
2018-03-29T07:24:08.419Z,99915.38
2018-03-29T07:26:36.050Z,99922.70
2018-03-29T07:29:03.643Z,99920.18
2018-03-29T07:31:31.295Z,99927.77
2018-03-29T07:33:58.960Z,99921.79
2018-03-29T07:36:26.566Z,99927.62
2018-03-29T07:38:54.222Z,99928.75
2018-03-29T07:41:21.811Z,99936.21
2018-03-29T07:43:49.444Z,99937.95
2018-03-29T07:46:17.053Z,99947.02
2018-03-29T07:48:44.682Z,99948.08
2018-03-29T07:51:12.272Z,99944.49
2018-03-29T07:53:39.903Z,99949.73
2018-03-29T07:56:07.493Z,99948.82
2018-03-29T07:58:35.126Z,99946.84
2018-03-29T08:01:02.731Z,99942.58
2018-03-29T08:03:30.369Z,99959.66
2018-03-29T08:05:58.075Z,99954.95
2018-03-29T08:08:25.698Z,99962.14
2018-03-29T08:10:53.384Z,99961.20
2018-03-29T08:13:21.007Z,99958.53
2018-03-29T08:15:48.582Z,99956.80
2018-03-29T08:18:16.301Z,99959.89
2018-03-29T08:20:43.919Z,99960.41
2018-03-29T08:23:11.551Z,99966.41
2018-03-29T08:25:39.138Z,99966.12
2018-03-29T08:28:06.766Z,99962.70
2018-03-29T08:30:34.338Z,99961.66
2018-03-29T08:33:01.972Z,99966.72
2018-03-29T08:35:29.680Z,99965.39
2018-03-29T08:37:57.442Z,99968.61
2018-03-29T08:40:25.107Z,99972.03
2018-03-29T08:42:52.861Z,99970.70
2018-03-29T08:45:20.466Z,99973.27
2018-03-29T08:47:48.154Z,99971.70
2018-03-29T08:50:15.980Z,99978.13
2018-03-29T08:52:43.602Z,99980.41
2018-03-29T08:55:11.243Z,99971.12
2018-03-29T08:57:38.845Z,99974.59
2018-03-29T09:00:06.478Z,99974.01
2018-03-29T09:02:34.141Z,99971.37
2018-03-29T09:05:01.769Z,99977.81
2018-03-29T09:07:29.394Z,99974.25
2018-03-29T09:09:57.083Z,99972.15
2018-03-29T09:12:24.676Z,99973.99
2018-03-29T09:14:52.398Z,99975.60
2018-03-29T09:17:19.988Z,99980.28
2018-03-29T09:19:47.622Z,99976.20
2018-03-29T09:22:15.212Z,99985.75
2018-03-29T09:24:42.853Z,99984.94
2018-03-29T09:27:10.434Z,99989.62
2018-03-29T09:29:38.369Z,99991.55
2018-03-29T09:32:06.074Z,99998.05
2018-03-29T09:34:33.745Z,100003.14
2018-03-29T09:37:01.337Z,99994.66
2018-03-29T09:39:28.946Z,100002.72
2018-03-29T09:41:56.622Z,100003.09
2018-03-29T09:44:24.220Z,99999.80
2018-03-29T09:46:51.901Z,99997.54
2018-03-29T09:49:19.494Z,99998.67
2018-03-29T09:51:47.110Z,100001.91
2018-03-29T09:54:14.704Z,100005.39
2018-03-29T09:56:42.332Z,99995.14
2018-03-29T09:59:10.002Z,100004.59
2018-03-29T10:01:37.646Z,100003.25
2018-03-29T10:04:10.714Z,100001.30
2018-03-29T10:06:52.031Z,100004.30
2018-03-29T10:09:19.679Z,100001.64
2018-03-29T10:11:47.289Z,100000.73
2018-03-29T10:14:14.883Z,99992.12
2018-03-29T10:16:42.531Z,99998.02
2018-03-29T10:19:10.122Z,99986.91
2018-03-29T10:21:37.897Z,99994.45
2018-03-29T10:24:05.500Z,99988.33
2018-03-29T10:26:33.149Z,99978.48
2018-03-29T10:29:00.723Z,99989.80
2018-03-29T10:31:28.355Z,99986.34
2018-03-29T10:33:55.936Z,99980.58
2018-03-29T10:36:23.582Z,99981.52
2018-03-29T10:38:51.188Z,99977.31
2018-03-29T10:41:18.899Z,99977.08
2018-03-29T10:43:46.530Z,99979.09
2018-03-29T10:46:14.119Z,99978.82
2018-03-29T10:48:41.850Z,99970.03
2018-03-29T10:51:09.430Z,99966.92
2018-03-29T10:53:37.061Z,99974.02
2018-03-29T10:56:04.710Z,99974.14
2018-03-29T10:58:32.327Z,99962.79
2018-03-29T11:01:00.006Z,99954.87
2018-03-29T11:03:27.646Z,99965.70
2018-03-29T11:05:55.262Z,99957.72
2018-03-29T11:08:22.914Z,99963.54
2018-03-29T11:10:50.478Z,99959.77
2018-03-29T11:13:18.143Z,99960.09
2018-03-29T11:15:45.750Z,99963.78
2018-03-29T11:18:13.370Z,99959.61
2018-03-29T11:20:40.975Z,99958.79
2018-03-29T11:23:08.689Z,99957.66
2018-03-29T11:25:36.294Z,99964.03
2018-03-29T11:28:03.938Z,99966.16
2018-03-29T11:30:31.568Z,99972.09
2018-03-29T11:32:59.146Z,99988.68
2018-03-29T11:35:26.770Z,99978.42
2018-03-29T11:37:54.395Z,99969.20
2018-03-29T11:42:54.720Z,99972.41
2018-03-29T11:45:22.349Z,99961.48
2018-03-29T11:47:49.958Z,99962.28
2018-03-29T11:50:17.588Z,99971.73
2018-03-29T11:52:45.242Z,99971.49
2018-03-29T11:55:12.973Z,99971.89
2018-03-29T11:57:40.565Z,99971.73
2018-03-29T12:00:08.302Z,99968.13
2018-03-29T12:02:35.892Z,99971.07
2018-03-29T12:05:03.538Z,99968.81
2018-03-29T12:07:31.127Z,99969.47
2018-03-29T12:09:58.786Z,99966.55
2018-03-29T12:12:27.177Z,99974.16
2018-03-29T12:14:54.972Z,99988.97
2018-03-29T12:17:22.680Z,99991.89
2018-03-29T12:19:50.381Z,100002.55
2018-03-29T12:22:17.958Z,100025.97
2018-03-29T12:24:45.567Z,100027.55
2018-03-29T12:27:13.194Z,100023.61
2018-03-29T12:29:40.790Z,100027.23
2018-03-29T12:32:09.574Z,100027.02
2018-03-29T12:34:37.291Z,100027.66
2018-03-29T12:37:04.935Z,100015.48
2018-03-29T12:39:32.562Z,100001.80
2018-03-29T12:42:00.208Z,99998.91
2018-03-29T12:44:27.946Z,100011.68
2018-03-29T12:46:55.659Z,100019.50
2018-03-29T12:49:23.233Z,100013.70
2018-03-29T12:51:50.873Z,100010.66
2018-03-29T12:54:18.458Z,100006.27
2018-03-29T12:56:57.943Z,100011.62
2018-03-29T12:59:25.549Z,100000.02
2018-03-29T13:01:53.270Z,99995.36
2018-03-29T13:04:20.933Z,99994.66
2018-03-29T13:06:48.610Z,99992.79
2018-03-29T13:09:16.208Z,99994.94
2018-03-29T13:11:43.840Z,99980.12
2018-03-29T13:14:11.453Z,99970.20
2018-03-29T13:16:39.278Z,99971.52
2018-03-29T13:19:06.868Z,99967.04
2018-03-29T13:21:34.519Z,99963.05
2018-03-29T13:24:02.154Z,99967.86
2018-03-29T13:26:29.861Z,99965.53
2018-03-29T13:28:57.503Z,99967.44
2018-03-29T13:31:25.087Z,99960.16
2018-03-29T13:33:52.732Z,99955.27
2018-03-29T13:36:20.321Z,99941.99
2018-03-29T13:38:47.979Z,99932.05
2018-03-29T13:41:15.586Z,99938.46
2018-03-29T13:43:43.343Z,99946.01
2018-03-29T13:46:10.955Z,99942.38
2018-03-29T13:48:38.609Z,99943.88
2018-03-29T13:51:06.163Z,99939.53
2018-03-29T13:53:33.930Z,99932.56
2018-03-29T13:56:01.546Z,99932.41
2018-03-29T13:58:29.244Z,99933.84
2018-03-29T14:00:56.846Z,99933.30
2018-03-29T14:03:24.508Z,99950.00
2018-03-29T14:05:52.104Z,99944.38
2018-03-29T14:08:19.791Z,99940.95
2018-03-29T14:10:47.411Z,99938.34
2018-03-29T14:13:15.079Z,99944.03
2018-03-29T14:15:42.686Z,99957.13
2018-03-29T14:18:10.272Z,99941.29
2018-03-29T14:20:39.542Z,99943.39
2018-03-29T14:23:07.161Z,99946.66
2018-03-29T14:25:34.793Z,99940.03
2018-03-29T14:28:02.584Z,99935.09
2018-03-29T14:30:30.218Z,99935.66
2018-03-29T14:32:57.835Z,99934.52
2018-03-29T14:35:25.481Z,99935.70
2018-03-29T14:37:53.086Z,99943.22
2018-03-29T14:40:20.729Z,99940.75
2018-03-29T14:42:48.386Z,99927.18
2018-03-29T14:45:16.062Z,99936.78
2018-03-29T14:47:43.677Z,99924.73
2018-03-29T14:50:11.317Z,99926.61
2018-03-29T14:52:38.927Z,99919.59
2018-03-29T14:55:06.602Z,99915.78
2018-03-29T14:57:34.146Z,99920.18
2018-03-29T15:00:01.977Z,99915.59
2018-03-29T15:02:29.574Z,99920.73
2018-03-29T15:04:57.450Z,99913.55
2018-03-29T15:07:25.174Z,99921.73
2018-03-29T15:09:52.787Z,99914.95
2018-03-29T15:12:20.440Z,99912.35
2018-03-29T15:14:48.031Z,99913.18
2018-03-29T15:17:15.794Z,99903.06
2018-03-29T15:19:43.427Z,99896.20
2018-03-29T15:22:11.093Z,99900.14
2018-03-29T15:24:38.676Z,99897.23
2018-03-29T15:27:06.297Z,99889.58
2018-03-29T15:29:34.410Z,99896.36
2018-03-29T15:32:02.078Z,99894.53
2018-03-29T15:34:29.682Z,99887.07
2018-03-29T15:36:57.303Z,99889.82
2018-03-29T15:39:24.917Z,99888.66
2018-03-29T15:41:52.548Z,99895.51
2018-03-29T15:44:20.221Z,99891.99
2018-03-29T15:46:47.945Z,99890.23
2018-03-29T15:49:15.607Z,99885.27
2018-03-29T15:51:43.241Z,99873.14
2018-03-29T15:54:10.878Z,99863.70
2018-03-29T15:56:38.615Z,99858.88
2018-03-29T15:59:06.256Z,99862.67
2018-03-29T16:01:33.882Z,99864.02
2018-03-29T16:04:01.527Z,99861.70
2018-03-29T16:06:29.124Z,99863.52
2018-03-29T16:08:56.747Z,99870.13
2018-03-29T16:11:24.604Z,99865.50
2018-03-29T16:13:52.255Z,99861.77
2018-03-29T16:16:19.845Z,99864.57
2018-03-29T16:18:47.483Z,99868.55
2018-03-29T16:21:15.101Z,99861.16
2018-03-29T16:23:42.716Z,99865.83
2018-03-29T16:26:10.326Z,99860.18
2018-03-29T16:28:37.956Z,99852.47
2018-03-29T16:31:05.565Z,99856.61
2018-03-29T16:33:33.379Z,99856.92
2018-03-29T16:36:00.996Z,99860.98
2018-03-29T16:38:28.630Z,99860.61
2018-03-29T16:40:56.209Z,99861.00
2018-03-29T16:43:23.926Z,99859.77
2018-03-29T16:45:51.546Z,99863.70
2018-03-29T16:48:19.174Z,99863.84
2018-03-29T16:50:46.809Z,99864.43
2018-03-29T16:53:14.452Z,99866.38
2018-03-29T16:55:42.223Z,99858.42
2018-03-29T16:58:09.885Z,99865.09
2018-03-29T17:00:37.547Z,99862.86
2018-03-29T17:03:05.142Z,99866.00
2018-03-29T17:05:32.800Z,99865.16
2018-03-29T17:08:00.454Z,99866.52
2018-03-29T17:10:28.130Z,99877.02
2018-03-29T17:12:55.757Z,99875.53
2018-03-29T17:15:23.463Z,99880.11
2018-03-29T17:17:51.133Z,99884.13
2018-03-29T17:20:18.803Z,99884.24
2018-03-29T17:22:46.422Z,99887.41
2018-03-29T17:25:14.165Z,99890.02
2018-03-29T17:27:41.812Z,99894.98
2018-03-29T17:30:09.474Z,99902.70
2018-03-29T17:32:37.126Z,99901.55
2018-03-29T17:35:04.798Z,99902.78
2018-03-29T17:37:32.403Z,99910.34
2018-03-29T17:40:00.043Z,99904.13
2018-03-29T17:42:27.663Z,99910.28
2018-03-29T17:44:55.294Z,99914.95
2018-03-29T17:47:22.947Z,99913.45
2018-03-29T17:49:50.654Z,99914.58
2018-03-29T17:52:18.323Z,99922.16
2018-03-29T17:54:45.926Z,99917.75
2018-03-29T17:57:13.593Z,99912.25
2018-03-29T17:59:41.197Z,99924.61
2018-03-29T18:02:08.860Z,99920.88
2018-03-29T18:04:36.523Z,99921.81
2018-03-29T18:07:04.212Z,99921.89
2018-03-29T18:09:31.808Z,99918.84
2018-03-29T18:11:59.468Z,99933.07
2018-03-29T18:14:27.130Z,99932.16
2018-03-29T18:16:54.768Z,99933.47
2018-03-29T18:19:22.379Z,99928.80
2018-03-29T18:21:50.002Z,99932.06
2018-03-29T18:24:17.602Z,99933.00
2018-03-29T18:26:45.275Z,99936.45
2018-03-29T18:29:12.874Z,99936.94
2018-03-29T18:31:40.577Z,99937.25
2018-03-29T18:34:08.168Z,99942.88
2018-03-29T18:36:35.871Z,99944.30
2018-03-29T18:39:03.499Z,99940.37
2018-03-29T18:41:31.173Z,99948.03
2018-03-29T18:43:58.835Z,99950.61
2018-03-29T18:46:26.506Z,99949.73
2018-03-29T18:48:54.148Z,99952.27
2018-03-29T18:51:21.747Z,99954.45
2018-03-29T18:53:49.375Z,99949.34
2018-03-29T18:56:16.999Z,99950.20
2018-03-29T18:58:44.709Z,99956.25
2018-03-29T19:01:12.296Z,99949.28
2018-03-29T19:03:39.939Z,99947.15
2018-03-29T19:06:07.586Z,99951.03
2018-03-29T19:08:35.255Z,99951.09
2018-03-29T19:11:02.877Z,99952.70
2018-03-29T19:13:30.532Z,99956.84
2018-03-29T19:15:58.148Z,99965.28
2018-03-29T19:18:25.767Z,99968.51
2018-03-29T19:20:53.355Z,99967.99
2018-03-29T19:23:21.012Z,99973.20
2018-03-29T19:25:48.608Z,99973.47
2018-03-29T19:28:16.375Z,99969.57
2018-03-29T19:30:43.962Z,99971.45
2018-03-29T19:33:11.610Z,99971.34
2018-03-29T19:35:40.199Z,99976.55
2018-03-29T19:38:07.791Z,99967.99
2018-03-29T19:40:35.442Z,99972.95
2018-03-29T19:43:03.039Z,99969.08
2018-03-29T19:45:30.693Z,99975.23
2018-03-29T19:47:58.301Z,99967.08
2018-03-29T19:50:25.934Z,99969.09
2018-03-29T19:52:53.554Z,99963.60
2018-03-29T19:55:21.188Z,99970.42
2018-03-29T19:57:48.785Z,99968.13
2018-03-29T20:00:16.555Z,99971.05
2018-03-29T20:02:44.225Z,99974.66
2018-03-29T20:05:11.877Z,99967.58
2018-03-29T20:07:39.559Z,99968.67
2018-03-29T20:10:07.180Z,99974.38
2018-03-29T20:12:34.869Z,99966.64
2018-03-29T20:15:02.556Z,99968.61
2018-03-29T20:17:30.158Z,99974.45
2018-03-29T20:19:57.891Z,99965.67
2018-03-29T20:22:25.498Z,99969.92
2018-03-29T20:24:53.112Z,99969.24
2018-03-29T20:27:20.787Z,99973.13
2018-03-29T20:29:49.367Z,99970.30
2018-03-29T20:32:17.156Z,99966.83
2018-03-29T20:34:44.751Z,99962.70
2018-03-29T20:37:12.404Z,99962.13
2018-03-29T20:39:40.003Z,99967.59
2018-03-29T20:42:07.645Z,99970.25
2018-03-29T20:44:35.432Z,99971.98
2018-03-29T20:47:03.132Z,99972.38
2018-03-29T20:49:30.724Z,99971.08
2018-03-29T20:51:58.564Z,99967.48
2018-03-29T20:54:26.161Z,99976.86
2018-03-29T20:56:53.784Z,99966.73
2018-03-29T20:59:21.378Z,99970.87
2018-03-29T21:01:48.995Z,99975.00
2018-03-29T21:04:16.660Z,99970.20
2018-03-29T21:06:44.254Z,99972.27
2018-03-29T21:09:11.949Z,99971.28
2018-03-29T21:11:39.823Z,99969.51
2018-03-29T21:14:07.557Z,99959.67
2018-03-29T21:16:35.279Z,99960.83
2018-03-29T21:19:03.011Z,99959.75
2018-03-29T21:21:30.644Z,99960.45
2018-03-29T21:23:58.312Z,99967.89
2018-03-29T21:26:25.924Z,99970.16
2018-03-29T21:28:53.663Z,99966.97
2018-03-29T21:31:21.426Z,99970.77
2018-03-29T21:33:49.255Z,99967.14
2018-03-29T21:36:16.899Z,99968.58
2018-03-29T21:41:18.436Z,99967.52
2018-03-29T21:43:46.125Z,99971.42
2018-03-29T21:46:13.872Z,99974.03
2018-03-29T21:48:41.495Z,99968.02
2018-03-29T21:51:09.159Z,99967.52
2018-03-29T21:53:36.764Z,99963.93
2018-03-29T21:56:04.508Z,99970.91
2018-03-29T21:58:32.279Z,99970.53
2018-03-29T22:00:59.922Z,99963.98
2018-03-29T22:03:27.559Z,99960.34
2018-03-29T22:05:55.206Z,99960.22
2018-03-29T22:08:23.376Z,99957.43
2018-03-29T22:10:51.060Z,99959.25
2018-03-29T22:13:18.648Z,99958.84
2018-03-29T22:15:46.647Z,99955.41
2018-03-29T22:18:14.440Z,99955.39
2018-03-29T22:20:42.386Z,99958.12
2018-03-29T22:23:10.010Z,99951.28
2018-03-29T22:25:39.593Z,99955.87
2018-03-29T22:28:07.198Z,99953.19
2018-03-29T22:30:34.802Z,99944.66
2018-03-29T22:33:02.463Z,99952.53
2018-03-29T22:35:30.056Z,99957.73
2018-03-29T22:37:57.858Z,99957.84
2018-03-29T22:40:25.455Z,99963.02
2018-03-29T22:42:53.105Z,99957.78
2018-03-29T22:45:20.737Z,99960.26
2018-03-29T22:47:48.472Z,99954.14
2018-03-29T22:50:16.056Z,99960.61
2018-03-29T22:52:43.842Z,99961.59
2018-03-29T22:55:11.487Z,99961.48
2018-03-29T22:57:39.167Z,99961.72
2018-03-29T23:00:06.850Z,99962.92
2018-03-29T23:02:34.482Z,99965.83
2018-03-29T23:05:02.178Z,99962.98
2018-03-29T23:07:29.847Z,99963.22
2018-03-29T23:09:57.508Z,99965.73
2018-03-29T23:12:25.127Z,99961.80
2018-03-29T23:14:52.783Z,99958.64
2018-03-29T23:17:20.450Z,99960.67
2018-03-29T23:19:48.176Z,99963.80
2018-03-29T23:22:17.000Z,99963.55
2018-03-29T23:24:44.661Z,99960.17
2018-03-29T23:27:12.446Z,99954.95
2018-03-29T23:29:41.142Z,99946.28
2018-03-29T23:32:08.773Z,99942.04
2018-03-29T23:34:36.397Z,99941.98
2018-03-29T23:37:04.631Z,99938.33
2018-03-29T23:39:32.371Z,99938.72
2018-03-29T23:42:00.094Z,99937.91
2018-03-29T23:44:28.593Z,99934.72
2018-03-29T23:46:56.167Z,99931.23
2018-03-29T23:49:23.803Z,99925.65
2018-03-29T23:51:51.385Z,99926.91
2018-03-29T23:54:19.127Z,99911.61
2018-03-29T23:56:46.713Z,99918.78
2018-03-29T23:59:14.357Z,99919.66
